sensor_id;sensor_type;location;lat;lon;timestamp;P1;durP1;ratioP1;P2;durP2;ratioP2
3249;SDS011;1637;42.020;23.992;2023-04-29T00:00:07;6.20;;;4.13;;
3249;SDS011;1637;42.020;23.992;2023-04-29T00:02:35;6.93;;;3.97;;
3249;SDS011;1637;42.020;23.992;2023-04-29T00:05:02;9.30;;;3.80;;
3249;SDS011;1637;42.020;23.992;2023-04-29T00:07:29;6.30;;;4.80;;
3249;SDS011;1637;42.020;23.992;2023-04-29T00:09:56;10.07;;;4.27;;
3249;SDS011;1637;42.020;23.992;2023-04-29T00:12:23;5.10;;;3.70;;
3249;SDS011;1637;42.020;23.992;2023-04-29T00:14:51;8.30;;;4.17;;
3249;SDS011;1637;42.020;23.992;2023-04-29T00:17:18;10.67;;;4.80;;
3249;SDS011;1637;42.020;23.992;2023-04-29T00:19:45;10.10;;;4.80;;
3249;SDS011;1637;42.020;23.992;2023-04-29T00:22:12;13.23;;;3.70;;
3249;SDS011;1637;42.020;23.992;2023-04-29T00:24:39;5.17;;;2.93;;
3249;SDS011;1637;42.020;23.992;2023-04-29T00:27:06;7.03;;;3.03;;
3249;SDS011;1637;42.020;23.992;2023-04-29T00:29:33;13.93;;;6.10;;
3249;SDS011;1637;42.020;23.992;2023-04-29T00:32:02;9.23;;;4.93;;
3249;SDS011;1637;42.020;23.992;2023-04-29T00:34:29;10.17;;;4.53;;
3249;SDS011;1637;42.020;23.992;2023-04-29T00:36:56;10.60;;;4.23;;
3249;SDS011;1637;42.020;23.992;2023-04-29T00:39:22;3.77;;;3.40;;
3249;SDS011;1637;42.020;23.992;2023-04-29T00:41:49;5.50;;;3.90;;
3249;SDS011;1637;42.020;23.992;2023-04-29T00:44:17;8.27;;;3.97;;
3249;SDS011;1637;42.020;23.992;2023-04-29T00:46:44;9.70;;;3.63;;
3249;SDS011;1637;42.020;23.992;2023-04-29T00:49:12;4.30;;;3.10;;
3249;SDS011;1637;42.020;23.992;2023-04-29T00:51:40;9.30;;;3.50;;
3249;SDS011;1637;42.020;23.992;2023-04-29T00:54:07;4.10;;;2.77;;
3249;SDS011;1637;42.020;23.992;2023-04-29T00:56:35;24.43;;;8.70;;
3249;SDS011;1637;42.020;23.992;2023-04-29T00:59:05;9.93;;;4.63;;
3249;SDS011;1637;42.020;23.992;2023-04-29T01:01:34;9.30;;;4.57;;
3249;SDS011;1637;42.020;23.992;2023-04-29T01:04:01;11.20;;;5.70;;
3249;SDS011;1637;42.020;23.992;2023-04-29T01:06:35;17.50;;;8.73;;
3249;SDS011;1637;42.020;23.992;2023-04-29T01:09:23;16.27;;;8.27;;
3249;SDS011;1637;42.020;23.992;2023-04-29T01:12:01;15.40;;;7.43;;
3249;SDS011;1637;42.020;23.992;2023-04-29T01:14:36;9.43;;;5.90;;
3249;SDS011;1637;42.020;23.992;2023-04-29T01:17:10;11.97;;;5.90;;
3249;SDS011;1637;42.020;23.992;2023-04-29T01:19:43;13.70;;;8.30;;
3249;SDS011;1637;42.020;23.992;2023-04-29T01:22:14;17.77;;;6.90;;
3249;SDS011;1637;42.020;23.992;2023-04-29T01:24:43;15.83;;;9.37;;
3249;SDS011;1637;42.020;23.992;2023-04-29T01:27:13;31.77;;;13.30;;
3249;SDS011;1637;42.020;23.992;2023-04-29T01:29:50;36.53;;;15.20;;
3249;SDS011;1637;42.020;23.992;2023-04-29T01:32:24;34.93;;;14.37;;
3249;SDS011;1637;42.020;23.992;2023-04-29T01:34:58;29.60;;;12.60;;
3249;SDS011;1637;42.020;23.992;2023-04-29T01:37:32;34.60;;;14.37;;
3249;SDS011;1637;42.020;23.992;2023-04-29T01:40:07;35.00;;;13.53;;
3249;SDS011;1637;42.020;23.992;2023-04-29T01:42:38;29.00;;;12.40;;
3249;SDS011;1637;42.020;23.992;2023-04-29T01:45:10;23.93;;;12.30;;
3249;SDS011;1637;42.020;23.992;2023-04-29T01:47:41;18.70;;;8.40;;
3249;SDS011;1637;42.020;23.992;2023-04-29T01:50:09;14.27;;;8.17;;
3249;SDS011;1637;42.020;23.992;2023-04-29T01:52:36;14.50;;;8.33;;
3249;SDS011;1637;42.020;23.992;2023-04-29T01:55:04;16.33;;;9.67;;
3249;SDS011;1637;42.020;23.992;2023-04-29T01:57:33;28.83;;;9.00;;
3249;SDS011;1637;42.020;23.992;2023-04-29T01:59:59;13.30;;;7.03;;
3249;SDS011;1637;42.020;23.992;2023-04-29T02:02:26;18.93;;;8.03;;
3249;SDS011;1637;42.020;23.992;2023-04-29T02:04:53;14.87;;;7.40;;
3249;SDS011;1637;42.020;23.992;2023-04-29T02:07:20;19.57;;;7.57;;
3249;SDS011;1637;42.020;23.992;2023-04-29T02:09:47;18.90;;;9.13;;
3249;SDS011;1637;42.020;23.992;2023-04-29T02:12:15;16.33;;;7.30;;
3249;SDS011;1637;42.020;23.992;2023-04-29T02:14:42;17.70;;;7.30;;
3249;SDS011;1637;42.020;23.992;2023-04-29T02:17:12;13.67;;;7.40;;
3249;SDS011;1637;42.020;23.992;2023-04-29T02:19:39;13.03;;;6.90;;
3249;SDS011;1637;42.020;23.992;2023-04-29T02:22:05;8.53;;;6.13;;
3249;SDS011;1637;42.020;23.992;2023-04-29T02:24:32;9.23;;;4.93;;
3249;SDS011;1637;42.020;23.992;2023-04-29T02:26:59;9.27;;;4.87;;
3249;SDS011;1637;42.020;23.992;2023-04-29T02:29:31;6.90;;;3.57;;
3249;SDS011;1637;42.020;23.992;2023-04-29T02:31:58;6.03;;;3.90;;
3249;SDS011;1637;42.020;23.992;2023-04-29T02:34:26;7.40;;;4.70;;
3249;SDS011;1637;42.020;23.992;2023-04-29T02:36:53;8.20;;;5.07;;
3249;SDS011;1637;42.020;23.992;2023-04-29T02:39:20;6.80;;;4.63;;
3249;SDS011;1637;42.020;23.992;2023-04-29T02:41:47;10.60;;;4.43;;
3249;SDS011;1637;42.020;23.992;2023-04-29T02:44:14;10.00;;;5.00;;
3249;SDS011;1637;42.020;23.992;2023-04-29T02:46:42;8.60;;;4.70;;
3249;SDS011;1637;42.020;23.992;2023-04-29T02:49:10;6.93;;;3.87;;
3249;SDS011;1637;42.020;23.992;2023-04-29T02:51:38;11.43;;;6.43;;
3249;SDS011;1637;42.020;23.992;2023-04-29T02:54:06;16.43;;;6.57;;
3249;SDS011;1637;42.020;23.992;2023-04-29T02:56:33;9.57;;;6.30;;
3249;SDS011;1637;42.020;23.992;2023-04-29T02:59:00;8.90;;;5.23;;
3249;SDS011;1637;42.020;23.992;2023-04-29T03:01:26;23.63;;;10.20;;
3249;SDS011;1637;42.020;23.992;2023-04-29T03:03:55;12.63;;;6.73;;
3249;SDS011;1637;42.020;23.992;2023-04-29T03:06:22;10.23;;;5.97;;
3249;SDS011;1637;42.020;23.992;2023-04-29T03:08:50;13.10;;;6.60;;
3249;SDS011;1637;42.020;23.992;2023-04-29T03:11:17;22.13;;;7.50;;
3249;SDS011;1637;42.020;23.992;2023-04-29T03:13:43;15.80;;;6.53;;
3249;SDS011;1637;42.020;23.992;2023-04-29T03:16:11;16.30;;;7.33;;
3249;SDS011;1637;42.020;23.992;2023-04-29T03:18:41;8.40;;;5.50;;
3249;SDS011;1637;42.020;23.992;2023-04-29T03:21:09;10.97;;;5.80;;
3249;SDS011;1637;42.020;23.992;2023-04-29T03:23:36;14.60;;;7.47;;
3249;SDS011;1637;42.020;23.992;2023-04-29T03:26:04;21.40;;;10.07;;
3249;SDS011;1637;42.020;23.992;2023-04-29T03:28:31;16.67;;;8.97;;
3249;SDS011;1637;42.020;23.992;2023-04-29T03:30:58;19.67;;;10.70;;
3249;SDS011;1637;42.020;23.992;2023-04-29T03:33:25;14.77;;;8.27;;
3249;SDS011;1637;42.020;23.992;2023-04-29T03:35:52;19.33;;;9.67;;
3249;SDS011;1637;42.020;23.992;2023-04-29T03:38:20;12.40;;;6.37;;
3249;SDS011;1637;42.020;23.992;2023-04-29T03:40:47;7.97;;;5.30;;
3249;SDS011;1637;42.020;23.992;2023-04-29T03:43:14;15.53;;;8.40;;
3249;SDS011;1637;42.020;23.992;2023-04-29T03:45:40;15.63;;;6.43;;
3249;SDS011;1637;42.020;23.992;2023-04-29T03:48:07;22.00;;;8.20;;
3249;SDS011;1637;42.020;23.992;2023-04-29T03:50:34;11.73;;;6.80;;
3249;SDS011;1637;42.020;23.992;2023-04-29T03:53:01;18.00;;;10.10;;
3249;SDS011;1637;42.020;23.992;2023-04-29T03:55:30;24.10;;;12.17;;
3249;SDS011;1637;42.020;23.992;2023-04-29T03:57:56;17.40;;;9.70;;
3249;SDS011;1637;42.020;23.992;2023-04-29T04:00:23;18.00;;;10.43;;
3249;SDS011;1637;42.020;23.992;2023-04-29T04:02:52;17.73;;;9.30;;
3249;SDS011;1637;42.020;23.992;2023-04-29T04:05:20;18.60;;;9.93;;
3249;SDS011;1637;42.020;23.992;2023-04-29T04:07:49;27.83;;;11.60;;
3249;SDS011;1637;42.020;23.992;2023-04-29T04:10:16;16.23;;;10.63;;
3249;SDS011;1637;42.020;23.992;2023-04-29T04:12:44;17.60;;;9.00;;
3249;SDS011;1637;42.020;23.992;2023-04-29T04:15:11;17.23;;;9.33;;
3249;SDS011;1637;42.020;23.992;2023-04-29T04:17:38;35.63;;;13.07;;
3249;SDS011;1637;42.020;23.992;2023-04-29T04:20:05;17.33;;;8.13;;
3249;SDS011;1637;42.020;23.992;2023-04-29T04:22:33;18.73;;;9.37;;
3249;SDS011;1637;42.020;23.992;2023-04-29T04:25:00;19.07;;;7.83;;
3249;SDS011;1637;42.020;23.992;2023-04-29T04:27:27;9.20;;;5.23;;
3249;SDS011;1637;42.020;23.992;2023-04-29T04:29:55;11.73;;;7.20;;
3249;SDS011;1637;42.020;23.992;2023-04-29T04:32:22;27.53;;;12.67;;
3249;SDS011;1637;42.020;23.992;2023-04-29T04:34:49;10.20;;;6.70;;
3249;SDS011;1637;42.020;23.992;2023-04-29T04:37:16;17.03;;;7.57;;
3249;SDS011;1637;42.020;23.992;2023-04-29T04:39:43;15.80;;;7.53;;
3249;SDS011;1637;42.020;23.992;2023-04-29T04:42:10;30.53;;;9.27;;
3249;SDS011;1637;42.020;23.992;2023-04-29T04:44:37;22.90;;;10.73;;
3249;SDS011;1637;42.020;23.992;2023-04-29T04:47:05;9.53;;;5.50;;
3249;SDS011;1637;42.020;23.992;2023-04-29T04:49:32;29.90;;;12.40;;
3249;SDS011;1637;42.020;23.992;2023-04-29T04:51:59;14.33;;;5.93;;
3249;SDS011;1637;42.020;23.992;2023-04-29T04:54:25;7.70;;;4.80;;
3249;SDS011;1637;42.020;23.992;2023-04-29T04:56:52;5.60;;;4.40;;
3249;SDS011;1637;42.020;23.992;2023-04-29T04:59:19;8.83;;;5.73;;
3249;SDS011;1637;42.020;23.992;2023-04-29T05:01:46;15.87;;;5.33;;
3249;SDS011;1637;42.020;23.992;2023-04-29T05:04:14;22.93;;;7.30;;
3249;SDS011;1637;42.020;23.992;2023-04-29T05:06:41;25.40;;;13.80;;
3249;SDS011;1637;42.020;23.992;2023-04-29T05:09:07;12.40;;;5.47;;
3249;SDS011;1637;42.020;23.992;2023-04-29T05:11:35;28.93;;;8.60;;
3249;SDS011;1637;42.020;23.992;2023-04-29T05:14:02;56.60;;;31.10;;
3249;SDS011;1637;42.020;23.992;2023-04-29T05:16:29;10.70;;;6.73;;
3249;SDS011;1637;42.020;23.992;2023-04-29T05:18:56;9.53;;;6.50;;
3249;SDS011;1637;42.020;23.992;2023-04-29T05:21:24;29.70;;;10.97;;
3249;SDS011;1637;42.020;23.992;2023-04-29T05:23:51;14.67;;;7.20;;
3249;SDS011;1637;42.020;23.992;2023-04-29T05:26:17;16.90;;;7.00;;
3249;SDS011;1637;42.020;23.992;2023-04-29T05:28:45;15.00;;;6.50;;
3249;SDS011;1637;42.020;23.992;2023-04-29T05:31:12;14.63;;;7.43;;
3249;SDS011;1637;42.020;23.992;2023-04-29T05:33:38;13.10;;;7.20;;
3249;SDS011;1637;42.020;23.992;2023-04-29T05:36:05;32.13;;;7.93;;
3249;SDS011;1637;42.020;23.992;2023-04-29T05:38:34;9.40;;;5.90;;
3249;SDS011;1637;42.020;23.992;2023-04-29T05:41:01;19.53;;;7.50;;
3249;SDS011;1637;42.020;23.992;2023-04-29T05:43:28;14.90;;;8.60;;
3249;SDS011;1637;42.020;23.992;2023-04-29T05:45:54;42.60;;;21.30;;
3249;SDS011;1637;42.020;23.992;2023-04-29T05:48:21;81.07;;;35.90;;
3249;SDS011;1637;42.020;23.992;2023-04-29T05:50:48;18.97;;;11.30;;
3249;SDS011;1637;42.020;23.992;2023-04-29T05:53:15;16.10;;;8.37;;
3249;SDS011;1637;42.020;23.992;2023-04-29T05:55:44;15.87;;;7.70;;
3249;SDS011;1637;42.020;23.992;2023-04-29T05:58:11;10.30;;;6.50;;
3249;SDS011;1637;42.020;23.992;2023-04-29T06:00:39;9.90;;;6.70;;
3249;SDS011;1637;42.020;23.992;2023-04-29T06:03:07;11.40;;;6.00;;
3249;SDS011;1637;42.020;23.992;2023-04-29T06:05:34;9.23;;;6.70;;
3249;SDS011;1637;42.020;23.992;2023-04-29T06:08:02;16.50;;;9.67;;
3249;SDS011;1637;42.020;23.992;2023-04-29T06:10:29;12.70;;;7.67;;
3249;SDS011;1637;42.020;23.992;2023-04-29T06:12:58;12.90;;;6.60;;
3249;SDS011;1637;42.020;23.992;2023-04-29T06:15:25;11.77;;;5.73;;
3249;SDS011;1637;42.020;23.992;2023-04-29T06:17:52;14.20;;;6.00;;
3249;SDS011;1637;42.020;23.992;2023-04-29T06:20:19;9.83;;;6.20;;
3249;SDS011;1637;42.020;23.992;2023-04-29T06:22:46;21.80;;;9.50;;
3249;SDS011;1637;42.020;23.992;2023-04-29T06:25:13;25.87;;;10.37;;
3249;SDS011;1637;42.020;23.992;2023-04-29T06:27:40;15.50;;;8.47;;
3249;SDS011;1637;42.020;23.992;2023-04-29T06:30:09;24.43;;;13.30;;
3249;SDS011;1637;42.020;23.992;2023-04-29T06:32:36;16.33;;;9.73;;
3249;SDS011;1637;42.020;23.992;2023-04-29T06:35:04;15.73;;;6.17;;
3249;SDS011;1637;42.020;23.992;2023-04-29T06:37:31;25.87;;;9.63;;
3249;SDS011;1637;42.020;23.992;2023-04-29T06:39:58;26.33;;;7.57;;
3249;SDS011;1637;42.020;23.992;2023-04-29T06:42:25;13.20;;;6.83;;
3249;SDS011;1637;42.020;23.992;2023-04-29T06:44:51;12.63;;;6.73;;
3249;SDS011;1637;42.020;23.992;2023-04-29T06:47:20;10.83;;;7.20;;
3249;SDS011;1637;42.020;23.992;2023-04-29T06:49:47;15.87;;;7.97;;
3249;SDS011;1637;42.020;23.992;2023-04-29T06:52:14;25.97;;;12.77;;
3249;SDS011;1637;42.020;23.992;2023-04-29T06:54:40;17.53;;;7.10;;
3249;SDS011;1637;42.020;23.992;2023-04-29T06:57:07;20.27;;;5.97;;
3249;SDS011;1637;42.020;23.992;2023-04-29T06:59:34;13.07;;;5.50;;
3249;SDS011;1637;42.020;23.992;2023-04-29T07:02:01;17.03;;;10.03;;
3249;SDS011;1637;42.020;23.992;2023-04-29T07:04:29;16.60;;;8.00;;
3249;SDS011;1637;42.020;23.992;2023-04-29T07:06:56;5.83;;;4.30;;
3249;SDS011;1637;42.020;23.992;2023-04-29T07:09:23;7.63;;;6.10;;
3249;SDS011;1637;42.020;23.992;2023-04-29T07:11:51;14.20;;;6.33;;
3249;SDS011;1637;42.020;23.992;2023-04-29T07:14:18;13.70;;;8.60;;
3249;SDS011;1637;42.020;23.992;2023-04-29T07:16:47;21.10;;;10.83;;
3249;SDS011;1637;42.020;23.992;2023-04-29T07:19:13;13.83;;;7.00;;
3249;SDS011;1637;42.020;23.992;2023-04-29T07:21:42;26.73;;;12.30;;
3249;SDS011;1637;42.020;23.992;2023-04-29T07:24:08;29.40;;;9.67;;
3249;SDS011;1637;42.020;23.992;2023-04-29T07:26:35;16.97;;;6.17;;
3249;SDS011;1637;42.020;23.992;2023-04-29T07:29:02;10.00;;;6.50;;
3249;SDS011;1637;42.020;23.992;2023-04-29T07:31:29;9.83;;;6.60;;
3249;SDS011;1637;42.020;23.992;2023-04-29T07:33:56;14.53;;;5.50;;
3249;SDS011;1637;42.020;23.992;2023-04-29T07:36:22;16.40;;;5.90;;
3249;SDS011;1637;42.020;23.992;2023-04-29T07:38:51;15.17;;;6.00;;
3249;SDS011;1637;42.020;23.992;2023-04-29T07:41:17;11.47;;;5.00;;
3249;SDS011;1637;42.020;23.992;2023-04-29T07:43:44;11.63;;;6.47;;
3249;SDS011;1637;42.020;23.992;2023-04-29T07:46:11;6.23;;;4.83;;
3249;SDS011;1637;42.020;23.992;2023-04-29T07:48:38;4.37;;;3.43;;
3249;SDS011;1637;42.020;23.992;2023-04-29T07:51:05;3.63;;;3.07;;
3249;SDS011;1637;42.020;23.992;2023-04-29T07:53:32;6.80;;;2.80;;
3249;SDS011;1637;42.020;23.992;2023-04-29T07:56:05;5.50;;;3.63;;
3249;SDS011;1637;42.020;23.992;2023-04-29T07:58:32;4.87;;;2.67;;
3249;SDS011;1637;42.020;23.992;2023-04-29T08:01:04;1.87;;;1.67;;
3249;SDS011;1637;42.020;23.992;2023-04-29T08:03:31;6.20;;;2.53;;
3249;SDS011;1637;42.020;23.992;2023-04-29T08:05:59;2.17;;;1.97;;
3249;SDS011;1637;42.020;23.992;2023-04-29T08:08:27;4.63;;;2.50;;
3249;SDS011;1637;42.020;23.992;2023-04-29T08:10:54;6.70;;;3.80;;
3249;SDS011;1637;42.020;23.992;2023-04-29T08:13:23;4.07;;;3.00;;
3249;SDS011;1637;42.020;23.992;2023-04-29T08:15:49;10.27;;;3.17;;
3249;SDS011;1637;42.020;23.992;2023-04-29T08:18:16;3.23;;;2.80;;
3249;SDS011;1637;42.020;23.992;2023-04-29T08:20:43;3.87;;;2.83;;
3249;SDS011;1637;42.020;23.992;2023-04-29T08:23:10;4.80;;;2.90;;
3249;SDS011;1637;42.020;23.992;2023-04-29T08:25:39;6.93;;;3.53;;
3249;SDS011;1637;42.020;23.992;2023-04-29T08:28:06;3.83;;;2.70;;
3249;SDS011;1637;42.020;23.992;2023-04-29T08:30:37;6.10;;;3.33;;
3249;SDS011;1637;42.020;23.992;2023-04-29T08:33:05;5.80;;;3.17;;
3249;SDS011;1637;42.020;23.992;2023-04-29T08:35:32;7.30;;;3.83;;
3249;SDS011;1637;42.020;23.992;2023-04-29T08:37:59;4.63;;;3.33;;
3249;SDS011;1637;42.020;23.992;2023-04-29T08:40:26;7.30;;;3.50;;
3249;SDS011;1637;42.020;23.992;2023-04-29T08:42:54;6.67;;;3.03;;
3249;SDS011;1637;42.020;23.992;2023-04-29T08:45:21;3.00;;;2.30;;
3249;SDS011;1637;42.020;23.992;2023-04-29T08:47:51;6.40;;;3.17;;
3249;SDS011;1637;42.020;23.992;2023-04-29T08:50:19;13.53;;;4.60;;
3249;SDS011;1637;42.020;23.992;2023-04-29T08:52:46;7.90;;;2.43;;
3249;SDS011;1637;42.020;23.992;2023-04-29T08:55:13;1.83;;;1.60;;
3249;SDS011;1637;42.020;23.992;2023-04-29T08:57:40;2.50;;;1.70;;
3249;SDS011;1637;42.020;23.992;2023-04-29T09:00:10;5.77;;;2.40;;
3249;SDS011;1637;42.020;23.992;2023-04-29T09:02:38;3.87;;;2.10;;
3249;SDS011;1637;42.020;23.992;2023-04-29T09:05:10;4.00;;;2.40;;
3249;SDS011;1637;42.020;23.992;2023-04-29T09:07:37;10.30;;;2.90;;
3249;SDS011;1637;42.020;23.992;2023-04-29T09:10:05;3.83;;;2.37;;
3249;SDS011;1637;42.020;23.992;2023-04-29T09:12:32;2.13;;;1.90;;
3249;SDS011;1637;42.020;23.992;2023-04-29T09:15:00;3.60;;;1.67;;
3249;SDS011;1637;42.020;23.992;2023-04-29T09:17:37;6.73;;;3.53;;
3249;SDS011;1637;42.020;23.992;2023-04-29T09:20:18;15.70;;;7.80;;
3249;SDS011;1637;42.020;23.992;2023-04-29T09:22:52;6.60;;;2.63;;
3249;SDS011;1637;42.020;23.992;2023-04-29T09:25:20;6.83;;;2.73;;
3249;SDS011;1637;42.020;23.992;2023-04-29T09:27:47;2.73;;;1.80;;
3249;SDS011;1637;42.020;23.992;2023-04-29T09:30:14;7.83;;;1.60;;
3249;SDS011;1637;42.020;23.992;2023-04-29T09:32:41;3.40;;;1.63;;
3249;SDS011;1637;42.020;23.992;2023-04-29T09:37:51;2.23;;;2.03;;
3249;SDS011;1637;42.020;23.992;2023-04-29T09:40:28;3.03;;;1.70;;
3249;SDS011;1637;42.020;23.992;2023-04-29T09:42:56;3.83;;;1.63;;
3249;SDS011;1637;42.020;23.992;2023-04-29T09:45:33;7.60;;;1.97;;
3249;SDS011;1637;42.020;23.992;2023-04-29T09:48:01;6.20;;;2.10;;
3249;SDS011;1637;42.020;23.992;2023-04-29T09:50:30;3.83;;;1.30;;
3249;SDS011;1637;42.020;23.992;2023-04-29T09:52:57;3.33;;;1.77;;
3249;SDS011;1637;42.020;23.992;2023-04-29T09:55:24;3.50;;;1.80;;
3249;SDS011;1637;42.020;23.992;2023-04-29T09:57:52;7.13;;;1.80;;
3249;SDS011;1637;42.020;23.992;2023-04-29T10:00:18;2.40;;;1.60;;
3249;SDS011;1637;42.020;23.992;2023-04-29T10:02:45;3.23;;;1.80;;
3249;SDS011;1637;42.020;23.992;2023-04-29T10:05:14;6.57;;;2.00;;
3249;SDS011;1637;42.020;23.992;2023-04-29T10:07:42;4.50;;;2.00;;
3249;SDS011;1637;42.020;23.992;2023-04-29T10:10:12;8.00;;;2.83;;
3249;SDS011;1637;42.020;23.992;2023-04-29T10:12:39;2.23;;;2.03;;
3249;SDS011;1637;42.020;23.992;2023-04-29T10:15:11;5.27;;;1.90;;
3249;SDS011;1637;42.020;23.992;2023-04-29T10:17:46;6.20;;;2.23;;
3249;SDS011;1637;42.020;23.992;2023-04-29T10:20:20;4.40;;;2.40;;
3249;SDS011;1637;42.020;23.992;2023-04-29T10:22:50;7.50;;;2.33;;
3249;SDS011;1637;42.020;23.992;2023-04-29T10:25:19;6.00;;;2.67;;
3249;SDS011;1637;42.020;23.992;2023-04-29T10:27:47;6.70;;;2.53;;
3249;SDS011;1637;42.020;23.992;2023-04-29T10:30:17;2.97;;;2.40;;
3249;SDS011;1637;42.020;23.992;2023-04-29T10:32:45;3.70;;;2.10;;
3249;SDS011;1637;42.020;23.992;2023-04-29T10:35:14;3.53;;;1.80;;
3249;SDS011;1637;42.020;23.992;2023-04-29T10:37:44;8.10;;;1.90;;
3249;SDS011;1637;42.020;23.992;2023-04-29T10:40:14;2.10;;;1.73;;
3249;SDS011;1637;42.020;23.992;2023-04-29T10:42:46;3.63;;;1.77;;
3249;SDS011;1637;42.020;23.992;2023-04-29T10:45:17;1.70;;;1.60;;
3249;SDS011;1637;42.020;23.992;2023-04-29T10:48:07;13.60;;;2.40;;
3249;SDS011;1637;42.020;23.992;2023-04-29T10:50:39;29.63;;;13.57;;
3249;SDS011;1637;42.020;23.992;2023-04-29T10:53:24;8.03;;;3.60;;
3249;SDS011;1637;42.020;23.992;2023-04-29T10:55:55;11.13;;;2.53;;
3249;SDS011;1637;42.020;23.992;2023-04-29T10:58:33;57.73;;;25.70;;
3249;SDS011;1637;42.020;23.992;2023-04-29T11:01:06;2.87;;;2.20;;
3249;SDS011;1637;42.020;23.992;2023-04-29T11:03:48;13.60;;;7.70;;
3249;SDS011;1637;42.020;23.992;2023-04-29T11:06:22;3.70;;;2.70;;
3249;SDS011;1637;42.020;23.992;2023-04-29T11:09:00;2.30;;;1.60;;
3249;SDS011;1637;42.020;23.992;2023-04-29T11:11:40;6.20;;;2.27;;
3249;SDS011;1637;42.020;23.992;2023-04-29T11:14:08;5.10;;;2.13;;
3249;SDS011;1637;42.020;23.992;2023-04-29T11:16:36;5.00;;;1.70;;
3249;SDS011;1637;42.020;23.992;2023-04-29T11:19:03;4.60;;;1.50;;
3249;SDS011;1637;42.020;23.992;2023-04-29T11:21:32;5.77;;;2.27;;
3249;SDS011;1637;42.020;23.992;2023-04-29T11:23:59;4.40;;;2.03;;
3249;SDS011;1637;42.020;23.992;2023-04-29T11:26:26;5.70;;;2.00;;
3249;SDS011;1637;42.020;23.992;2023-04-29T11:28:55;5.00;;;2.50;;
3249;SDS011;1637;42.020;23.992;2023-04-29T11:31:25;2.77;;;1.30;;
3249;SDS011;1637;42.020;23.992;2023-04-29T11:33:54;2.47;;;1.77;;
3249;SDS011;1637;42.020;23.992;2023-04-29T11:36:20;4.87;;;1.87;;
3249;SDS011;1637;42.020;23.992;2023-04-29T11:38:47;3.73;;;2.40;;
3249;SDS011;1637;42.020;23.992;2023-04-29T11:41:14;3.87;;;1.57;;
3249;SDS011;1637;42.020;23.992;2023-04-29T11:43:41;2.83;;;1.80;;
3249;SDS011;1637;42.020;23.992;2023-04-29T11:46:13;2.20;;;1.80;;
3249;SDS011;1637;42.020;23.992;2023-04-29T11:48:44;14.00;;;6.77;;
3249;SDS011;1637;42.020;23.992;2023-04-29T11:51:13;5.70;;;2.80;;
3249;SDS011;1637;42.020;23.992;2023-04-29T11:53:40;4.70;;;1.83;;
3249;SDS011;1637;42.020;23.992;2023-04-29T11:56:07;6.37;;;2.00;;
3249;SDS011;1637;42.020;23.992;2023-04-29T11:58:35;13.13;;;5.70;;
3249;SDS011;1637;42.020;23.992;2023-04-29T12:01:02;5.97;;;2.10;;
3249;SDS011;1637;42.020;23.992;2023-04-29T12:03:32;4.40;;;1.70;;
3249;SDS011;1637;42.020;23.992;2023-04-29T12:06:00;7.30;;;2.90;;
3249;SDS011;1637;42.020;23.992;2023-04-29T12:08:30;3.80;;;2.00;;
3249;SDS011;1637;42.020;23.992;2023-04-29T12:10:59;3.40;;;1.87;;
3249;SDS011;1637;42.020;23.992;2023-04-29T12:13:27;4.03;;;2.30;;
3249;SDS011;1637;42.020;23.992;2023-04-29T12:15:55;6.60;;;1.60;;
3249;SDS011;1637;42.020;23.992;2023-04-29T12:18:23;4.13;;;1.30;;
3249;SDS011;1637;42.020;23.992;2023-04-29T12:20:53;6.67;;;1.80;;
3249;SDS011;1637;42.020;23.992;2023-04-29T12:23:21;1.83;;;1.17;;
3249;SDS011;1637;42.020;23.992;2023-04-29T12:25:51;6.47;;;1.63;;
3249;SDS011;1637;42.020;23.992;2023-04-29T12:28:19;1.80;;;1.37;;
3249;SDS011;1637;42.020;23.992;2023-04-29T12:30:47;2.77;;;1.40;;
3249;SDS011;1637;42.020;23.992;2023-04-29T12:33:15;3.93;;;2.70;;
3249;SDS011;1637;42.020;23.992;2023-04-29T12:35:46;10.60;;;4.23;;
3249;SDS011;1637;42.020;23.992;2023-04-29T12:38:16;1.43;;;1.10;;
3249;SDS011;1637;42.020;23.992;2023-04-29T12:40:46;1.80;;;1.47;;
3249;SDS011;1637;42.020;23.992;2023-04-29T12:43:13;2.47;;;1.30;;
3249;SDS011;1637;42.020;23.992;2023-04-29T12:45:40;5.60;;;2.50;;
3249;SDS011;1637;42.020;23.992;2023-04-29T12:48:08;2.27;;;1.37;;
3249;SDS011;1637;42.020;23.992;2023-04-29T12:50:37;3.50;;;1.70;;
3249;SDS011;1637;42.020;23.992;2023-04-29T12:53:06;8.70;;;1.73;;
3249;SDS011;1637;42.020;23.992;2023-04-29T12:55:36;3.93;;;1.30;;
3249;SDS011;1637;42.020;23.992;2023-04-29T12:58:04;4.60;;;1.50;;
3249;SDS011;1637;42.020;23.992;2023-04-29T13:00:33;2.60;;;1.50;;
3249;SDS011;1637;42.020;23.992;2023-04-29T13:03:01;3.70;;;1.67;;
3249;SDS011;1637;42.020;23.992;2023-04-29T13:05:28;2.20;;;1.50;;
3249;SDS011;1637;42.020;23.992;2023-04-29T13:07:55;2.80;;;1.10;;
3249;SDS011;1637;42.020;23.992;2023-04-29T13:10:22;3.37;;;1.50;;
3249;SDS011;1637;42.020;23.992;2023-04-29T13:12:50;3.43;;;1.47;;
3249;SDS011;1637;42.020;23.992;2023-04-29T13:15:17;1.43;;;1.33;;
3249;SDS011;1637;42.020;23.992;2023-04-29T13:17:44;3.93;;;1.47;;
3249;SDS011;1637;42.020;23.992;2023-04-29T13:20:11;2.70;;;1.27;;
3249;SDS011;1637;42.020;23.992;2023-04-29T13:22:39;7.33;;;2.03;;
3249;SDS011;1637;42.020;23.992;2023-04-29T13:25:07;6.13;;;1.47;;
3249;SDS011;1637;42.020;23.992;2023-04-29T13:27:36;3.50;;;1.60;;
3249;SDS011;1637;42.020;23.992;2023-04-29T13:30:04;7.77;;;1.60;;
3249;SDS011;1637;42.020;23.992;2023-04-29T13:32:33;1.57;;;1.30;;
3249;SDS011;1637;42.020;23.992;2023-04-29T13:34:59;2.90;;;1.37;;
3249;SDS011;1637;42.020;23.992;2023-04-29T13:37:26;1.70;;;1.40;;
3249;SDS011;1637;42.020;23.992;2023-04-29T13:39:53;5.10;;;1.63;;
3249;SDS011;1637;42.020;23.992;2023-04-29T13:42:20;3.50;;;1.60;;
3249;SDS011;1637;42.020;23.992;2023-04-29T13:44:47;4.20;;;1.30;;
3249;SDS011;1637;42.020;23.992;2023-04-29T13:47:16;2.90;;;1.50;;
3249;SDS011;1637;42.020;23.992;2023-04-29T13:49:43;4.20;;;1.60;;
3249;SDS011;1637;42.020;23.992;2023-04-29T13:52:09;3.43;;;1.53;;
3249;SDS011;1637;42.020;23.992;2023-04-29T13:54:37;3.83;;;2.20;;
3249;SDS011;1637;42.020;23.992;2023-04-29T13:57:04;5.30;;;4.03;;
3249;SDS011;1637;42.020;23.992;2023-04-29T13:59:31;7.70;;;2.93;;
3249;SDS011;1637;42.020;23.992;2023-04-29T14:01:59;4.57;;;3.10;;
3249;SDS011;1637;42.020;23.992;2023-04-29T14:04:27;3.97;;;3.40;;
3249;SDS011;1637;42.020;23.992;2023-04-29T14:06:55;7.70;;;4.67;;
3249;SDS011;1637;42.020;23.992;2023-04-29T14:09:22;3.77;;;2.33;;
3249;SDS011;1637;42.020;23.992;2023-04-29T14:11:49;2.27;;;1.80;;
3249;SDS011;1637;42.020;23.992;2023-04-29T14:14:16;2.97;;;2.23;;
3249;SDS011;1637;42.020;23.992;2023-04-29T14:16:43;4.77;;;1.77;;
3249;SDS011;1637;42.020;23.992;2023-04-29T14:19:10;6.50;;;3.00;;
3249;SDS011;1637;42.020;23.992;2023-04-29T14:21:38;5.53;;;2.50;;
3249;SDS011;1637;42.020;23.992;2023-04-29T14:24:05;7.70;;;3.03;;
3249;SDS011;1637;42.020;23.992;2023-04-29T14:26:31;9.50;;;4.13;;
3249;SDS011;1637;42.020;23.992;2023-04-29T14:28:58;5.53;;;3.77;;
3249;SDS011;1637;42.020;23.992;2023-04-29T14:31:25;7.37;;;5.40;;
3249;SDS011;1637;42.020;23.992;2023-04-29T14:33:53;6.17;;;4.40;;
3249;SDS011;1637;42.020;23.992;2023-04-29T14:36:20;10.70;;;6.50;;
3249;SDS011;1637;42.020;23.992;2023-04-29T14:38:48;2.63;;;2.43;;
3249;SDS011;1637;42.020;23.992;2023-04-29T14:41:15;18.37;;;8.20;;
3249;SDS011;1637;42.020;23.992;2023-04-29T14:43:42;8.10;;;4.87;;
3249;SDS011;1637;42.020;23.992;2023-04-29T14:46:09;40.73;;;13.37;;
3249;SDS011;1637;42.020;23.992;2023-04-29T14:48:36;68.70;;;19.63;;
3249;SDS011;1637;42.020;23.992;2023-04-29T14:51:03;157.50;;;38.97;;
3249;SDS011;1637;42.020;23.992;2023-04-29T14:53:31;92.73;;;24.90;;
3249;SDS011;1637;42.020;23.992;2023-04-29T14:55:59;43.03;;;11.67;;
3249;SDS011;1637;42.020;23.992;2023-04-29T14:58:27;81.57;;;23.57;;
3249;SDS011;1637;42.020;23.992;2023-04-29T15:00:54;32.73;;;11.67;;